createdAt,value
2023-01-12T00:02:01.678Z,100371.88
2023-01-12T00:04:31.006Z,100369.16
2023-01-12T00:06:59.688Z,100385.97
2023-01-12T00:09:27.038Z,100370.94
2023-01-12T00:11:54.130Z,100374.41
2023-01-12T00:14:21.198Z,100377.09
2023-01-12T00:16:48.207Z,100372.75
2023-01-12T00:19:18.602Z,100368.31
2023-01-12T00:22:10.978Z,100358.72
2023-01-12T00:24:52.668Z,100365.78
2023-01-12T00:27:21.933Z,100348.31
2023-01-12T00:29:50.323Z,100351.78
2023-01-12T00:32:20.639Z,100349.97
2023-01-12T00:34:48.442Z,100340.28
2023-01-12T00:37:15.692Z,100344.66
2023-01-12T00:39:53.262Z,100339.47
2023-01-12T00:43:08.875Z,100319.22
2023-01-12T00:45:35.866Z,100315.78
2023-01-12T00:48:02.855Z,100307.88
2023-01-12T00:50:29.925Z,100297.28
2023-01-12T00:52:56.901Z,100298.97
2023-01-12T00:55:23.847Z,100310.59
2023-01-12T00:57:50.756Z,100307.09
2023-01-12T01:00:18.221Z,100303.56
2023-01-12T01:02:45.439Z,100318.66
2023-01-12T01:05:12.442Z,100315.41
2023-01-12T01:07:39.508Z,100301.22
2023-01-12T01:10:07.398Z,100303.78
2023-01-12T01:12:34.443Z,100318.75
2023-01-12T01:15:03.373Z,100318.72
2023-01-12T01:17:30.374Z,100313.53
2023-01-12T01:19:58.111Z,100316.91
2023-01-12T01:22:25.085Z,100325.72
2023-01-12T01:24:52.078Z,100331.88
2023-01-12T01:27:19.050Z,100333.72
2023-01-12T01:29:46.117Z,100336.25
2023-01-12T01:32:13.092Z,100330.94
2023-01-12T01:34:41.173Z,100345.88
2023-01-12T01:37:08.186Z,100339.91
2023-01-12T01:39:35.259Z,100326.91
2023-01-12T01:42:02.211Z,100320.78
2023-01-12T01:44:31.981Z,100329.59
2023-01-12T01:47:07.220Z,100324.34
2023-01-12T01:49:49.835Z,100307.72
2023-01-12T01:52:37.343Z,100302.63
2023-01-12T01:55:24.224Z,100290.34
2023-01-12T01:58:02.717Z,100286.03
2023-01-12T02:00:29.791Z,100273.59
2023-01-12T02:02:57.833Z,100279.59
2023-01-12T02:05:28.245Z,100278.94
2023-01-12T02:07:59.040Z,100267.56
2023-01-12T02:10:26.053Z,100265.75
2023-01-12T02:13:11.864Z,100255.25
2023-01-12T02:16:20.769Z,100234.13
2023-01-12T02:19:02.746Z,100235.97
2023-01-12T02:22:28.377Z,100241.97
2023-01-12T02:25:24.863Z,100248.03
2023-01-12T02:29:00.724Z,100244.41
2023-01-12T02:32:02.548Z,100252.28
2023-01-12T02:35:01.254Z,100250.56
2023-01-12T02:37:35.187Z,100258.41
2023-01-12T02:40:19.994Z,100268.16
2023-01-12T02:43:09.506Z,100258.47
2023-01-12T02:46:17.732Z,100248.72
2023-01-12T02:49:21.194Z,100248.38
2023-01-12T02:51:56.463Z,100256.34
2023-01-12T02:54:25.331Z,100256.31
2023-01-12T02:57:01.813Z,100256.34
2023-01-12T02:59:33.418Z,100255.38
2023-01-12T03:02:07.404Z,100257.94
2023-01-12T03:04:34.981Z,100254.41
2023-01-12T03:07:01.950Z,100245.59
2023-01-12T03:09:43.754Z,100257.06
2023-01-12T03:12:33.644Z,100246.59
2023-01-12T03:15:06.287Z,100245.63
2023-01-12T03:18:10.913Z,100240.41
2023-01-12T03:20:50.783Z,100248.28
2023-01-12T03:23:24.652Z,100243.94
2023-01-12T03:25:55.471Z,100229.88
2023-01-12T03:28:28.278Z,100243.03
2023-01-12T03:31:01.134Z,100229.00
2023-01-12T03:33:28.259Z,100232.50
2023-01-12T03:36:28.724Z,100222.09
2023-01-12T03:39:18.767Z,100214.13
2023-01-12T03:42:28.061Z,100215.97
2023-01-12T03:45:19.743Z,100213.44
2023-01-12T03:47:52.119Z,100198.41
2023-01-12T03:50:27.448Z,100220.50
2023-01-12T03:52:57.061Z,100223.56
2023-01-12T03:55:26.355Z,100201.44
2023-01-12T03:57:54.154Z,100182.09
2023-01-12T04:00:23.514Z,100180.56
2023-01-12T04:02:50.547Z,100156.09
2023-01-12T04:05:17.629Z,100155.16
2023-01-12T04:07:44.639Z,100145.44
2023-01-12T04:10:11.773Z,100145.41
2023-01-12T04:12:38.737Z,100120.81
2023-01-12T04:15:06.268Z,100129.63
2023-01-12T04:17:33.622Z,100145.41
2023-01-12T04:20:00.608Z,100144.50
2023-01-12T04:22:45.401Z,100125.13
2023-01-12T04:25:18.555Z,100133.13
2023-01-12T04:27:56.623Z,100134.81
2023-01-12T04:30:27.325Z,100127.72
2023-01-12T04:32:55.754Z,100135.75
2023-01-12T04:35:26.717Z,100122.56
2023-01-12T04:37:54.379Z,100131.38
2023-01-12T04:40:21.653Z,100132.28
2023-01-12T04:43:11.015Z,100126.06
2023-01-12T04:45:40.886Z,100139.25
2023-01-12T04:48:14.263Z,100127.09
2023-01-12T04:50:42.450Z,100117.44
2023-01-12T04:53:12.353Z,100106.91
2023-01-12T04:55:42.098Z,100092.94
2023-01-12T04:58:09.572Z,100092.09
2023-01-12T05:00:36.813Z,100075.34
2023-01-12T05:03:03.819Z,100083.22
2023-01-12T05:05:33.215Z,100085.81
2023-01-12T05:08:20.659Z,100088.53
2023-01-12T05:10:56.895Z,100085.91
2023-01-12T05:13:27.905Z,100077.03
2023-01-12T05:15:55.259Z,100068.28
2023-01-12T05:18:22.508Z,100065.66
2023-01-12T05:20:49.609Z,100062.97
2023-01-12T05:23:16.565Z,100065.66
2023-01-12T05:25:43.598Z,100066.59
2023-01-12T05:28:10.582Z,100050.75
2023-01-12T05:30:37.582Z,100040.13
2023-01-12T05:33:04.572Z,100048.00
2023-01-12T05:35:31.526Z,100054.09
2023-01-12T05:37:58.506Z,100047.13
2023-01-12T05:40:25.519Z,100055.91
2023-01-12T05:43:11.475Z,100051.53
2023-01-12T05:45:38.560Z,100043.63
2023-01-12T05:48:06.020Z,100040.97
2023-01-12T05:50:33.151Z,100040.97
2023-01-12T05:53:00.106Z,100046.38
2023-01-12T05:55:27.081Z,100011.22
2023-01-12T05:57:54.112Z,99997.97
2023-01-12T06:00:21.448Z,99997.91
2023-01-12T06:02:48.406Z,100019.00
2023-01-12T06:05:15.375Z,100010.28
2023-01-12T06:07:42.956Z,100017.31
2023-01-12T06:10:11.258Z,100002.38
2023-01-12T06:12:56.453Z,100010.25
2023-01-12T06:15:23.422Z,100011.97
2023-01-12T06:17:50.419Z,100019.03
2023-01-12T06:20:17.626Z,100005.88
2023-01-12T06:22:45.388Z,100001.38
2023-01-12T06:25:12.911Z,99999.34
2023-01-12T06:27:40.164Z,100000.91
2023-01-12T06:30:08.841Z,100017.59
2023-01-12T06:32:36.585Z,100017.63
2023-01-12T06:35:17.879Z,100014.03
2023-01-12T06:37:45.872Z,100021.03
2023-01-12T06:40:13.502Z,100014.81
2023-01-12T06:42:42.321Z,100022.72
2023-01-12T06:45:10.585Z,100019.25
2023-01-12T06:47:49.584Z,100020.16
2023-01-12T06:50:17.338Z,100010.50
2023-01-12T06:52:44.736Z,100016.69
2023-01-12T06:55:11.746Z,100013.19
2023-01-12T06:57:38.794Z,100016.72
2023-01-12T07:00:07.131Z,100012.25
2023-01-12T07:02:34.250Z,100007.78
2023-01-12T07:05:01.228Z,100016.59
2023-01-12T07:07:28.579Z,100014.78
2023-01-12T07:09:55.634Z,100010.38
2023-01-12T07:12:22.794Z,100013.09
2023-01-12T07:14:49.854Z,100007.78
2023-01-12T07:17:16.955Z,100006.00
2023-01-12T07:19:44.031Z,100010.41
2023-01-12T07:22:11.041Z,100007.78
2023-01-12T07:24:38.232Z,100011.31
2023-01-12T07:27:05.211Z,100023.63
2023-01-12T07:29:32.192Z,100010.47
2023-01-12T07:31:59.229Z,100004.31
2023-01-12T07:34:26.250Z,99999.94
2023-01-12T07:36:53.199Z,100013.09
2023-01-12T07:39:20.435Z,100025.44
2023-01-12T07:42:05.814Z,100020.09
2023-01-12T07:44:32.848Z,100031.41
2023-01-12T07:47:00.171Z,100036.59
2023-01-12T07:49:27.728Z,100038.31
2023-01-12T07:51:56.028Z,100041.78
2023-01-12T07:54:23.577Z,100030.44
2023-01-12T07:56:50.561Z,100026.00
2023-01-12T07:59:17.883Z,100033.88
2023-01-12T08:01:45.088Z,100043.56
2023-01-12T08:04:12.277Z,100029.50
2023-01-12T08:06:39.330Z,100033.03
2023-01-12T08:09:06.305Z,100030.41
2023-01-12T08:11:33.292Z,100024.34
2023-01-12T08:14:01.494Z,100030.53
2023-01-12T08:16:38.372Z,100025.16
2023-01-12T08:19:17.075Z,100044.53
2023-01-12T08:21:52.683Z,100045.47
2023-01-12T08:24:32.729Z,100049.78
2023-01-12T08:27:03.837Z,100058.53
2023-01-12T08:29:46.147Z,100062.00
2023-01-12T08:32:17.950Z,100060.25
2023-01-12T08:34:50.786Z,100063.75
2023-01-12T08:37:23.434Z,100057.59
2023-01-12T08:39:51.709Z,100072.75
2023-01-12T08:42:20.357Z,100093.28
2023-01-12T08:44:47.375Z,100085.44
2023-01-12T08:47:28.278Z,100093.34
2023-01-12T08:49:55.490Z,100069.34
2023-01-12T08:52:22.587Z,100076.19
2023-01-12T08:54:50.367Z,100078.06
2023-01-12T08:57:19.394Z,100076.44
2023-01-12T08:59:46.530Z,100072.38
2023-01-12T09:02:14.879Z,100062.06
2023-01-12T09:04:42.650Z,100057.69
2023-01-12T09:07:11.676Z,100057.72
2023-01-12T09:09:39.332Z,100051.66
2023-01-12T09:12:07.017Z,100043.72
2023-01-12T09:14:39.086Z,100051.69
2023-01-12T09:17:07.779Z,100047.25
2023-01-12T09:19:35.037Z,100038.53
2023-01-12T09:22:02.091Z,100037.66
2023-01-12T09:24:29.079Z,100035.00
2023-01-12T09:26:56.562Z,100029.75
2023-01-12T09:29:24.100Z,100040.41
2023-01-12T09:31:52.427Z,100040.53
2023-01-12T09:34:19.959Z,100034.41
2023-01-12T09:36:47.041Z,100042.38
2023-01-12T09:39:27.370Z,100040.63
2023-01-12T09:42:14.124Z,100033.59
2023-01-12T09:45:09.657Z,100031.84
2023-01-12T09:47:48.351Z,100024.81
2023-01-12T09:50:28.635Z,100029.22
2023-01-12T09:53:07.949Z,100038.00
2023-01-12T09:56:16.471Z,100046.81
2023-01-12T09:59:20.670Z,100038.94
2023-01-12T10:01:48.191Z,100038.97
2023-01-12T10:04:15.760Z,100039.84
2023-01-12T10:06:42.983Z,100044.31
2023-01-12T10:09:18.998Z,100035.53
2023-01-12T10:12:04.811Z,100036.38
2023-01-12T10:14:50.018Z,100031.09
2023-01-12T10:18:10.403Z,100036.38
2023-01-12T10:20:45.172Z,100034.63
2023-01-12T10:23:19.523Z,100036.41
2023-01-12T10:25:51.275Z,100027.63
2023-01-12T10:28:24.190Z,100018.84
2023-01-12T10:30:53.189Z,100039.09
2023-01-12T10:33:37.148Z,100032.94
2023-01-12T10:36:09.957Z,100032.06
2023-01-12T10:39:00.949Z,100032.94
2023-01-12T10:41:32.875Z,100036.44
2023-01-12T10:44:00.016Z,100041.72
2023-01-12T10:46:31.660Z,100047.00
2023-01-12T10:49:22.966Z,100039.97
2023-01-12T10:52:10.204Z,100045.25
2023-01-12T10:54:41.463Z,100039.09
2023-01-12T10:57:23.564Z,100042.59
2023-01-12T10:59:59.436Z,100063.78
2023-01-12T11:02:29.365Z,100062.03
2023-01-12T11:04:56.753Z,100058.50
2023-01-12T11:07:27.072Z,100062.94
2023-01-12T11:09:55.321Z,100056.78
2023-01-12T11:12:38.684Z,100067.31
2023-01-12T11:15:12.246Z,100070.84
2023-01-12T11:17:39.839Z,100078.84
2023-01-12T11:20:55.916Z,100065.59
2023-01-12T11:23:50.021Z,100056.75
2023-01-12T11:26:22.834Z,100054.16
2023-01-12T11:28:57.065Z,100063.81
2023-01-12T11:31:36.447Z,100062.91
2023-01-12T11:34:13.954Z,100047.06
2023-01-12T11:36:45.879Z,100048.84
2023-01-12T11:39:23.425Z,100039.16
2023-01-12T11:42:11.999Z,100038.28
2023-01-12T11:45:05.174Z,100038.28
2023-01-12T11:47:49.127Z,100029.47
2023-01-12T11:50:28.782Z,100018.00
2023-01-12T11:52:56.956Z,100017.19
2023-01-12T11:55:48.067Z,100014.59
2023-01-12T11:58:42.402Z,100018.16
2023-01-12T12:01:41.239Z,100009.34
2023-01-12T12:04:44.299Z,100001.38
2023-01-12T12:07:36.394Z,99991.69
2023-01-12T12:10:57.675Z,99989.91
2023-01-12T12:13:42.365Z,99989.91
2023-01-12T12:16:45.890Z,99990.78
2023-01-12T12:20:04.759Z,99991.69
2023-01-12T12:23:04.718Z,99995.22
2023-01-12T12:25:48.615Z,99981.16
2023-01-12T12:28:36.515Z,99965.28
2023-01-12T12:31:25.147Z,99982.91
2023-01-12T12:34:08.566Z,99989.94
2023-01-12T12:37:05.150Z,99988.22
2023-01-12T12:40:01.770Z,99980.31
2023-01-12T12:43:22.595Z,99981.16
2023-01-12T12:46:12.527Z,99974.13
2023-01-12T12:48:52.895Z,99974.13
2023-01-12T12:51:22.846Z,99980.28
2023-01-12T12:53:50.491Z,99984.69
2023-01-12T12:56:20.054Z,99997.00
2023-01-12T12:58:56.294Z,99982.91
2023-01-12T13:01:27.525Z,99981.97
2023-01-12T13:04:03.163Z,99988.16
2023-01-12T13:06:31.931Z,99992.53
2023-01-12T13:09:03.058Z,99989.88
2023-01-12T13:11:57.266Z,99981.97
2023-01-12T13:14:34.215Z,99989.88
2023-01-12T13:17:23.600Z,99983.72
2023-01-12T13:20:02.206Z,99985.50
2023-01-12T13:22:50.101Z,99982.00
2023-01-12T13:25:17.028Z,99974.09
2023-01-12T13:27:57.723Z,99971.44
2023-01-12T13:30:30.461Z,99977.63
2023-01-12T13:33:15.579Z,99971.44
2023-01-12T13:35:46.491Z,99973.22
2023-01-12T13:38:43.985Z,99967.03
2023-01-12T13:41:14.013Z,99957.34
2023-01-12T13:43:53.759Z,99959.97
2023-01-12T13:46:32.811Z,99965.28
2023-01-12T13:49:00.411Z,99967.91
2023-01-12T13:51:54.801Z,99949.41
2023-01-12T13:54:21.820Z,99953.81
2023-01-12T13:57:06.857Z,99945.88
2023-01-12T13:59:35.005Z,99945.00
2023-01-12T14:02:02.991Z,99947.63
2023-01-12T14:05:20.325Z,99938.81
2023-01-12T14:08:50.152Z,99943.25
2023-01-12T14:12:04.779Z,99931.78
2023-01-12T14:15:20.891Z,99931.81
2023-01-12T14:17:53.127Z,99934.44
2023-01-12T14:20:27.668Z,99937.09
2023-01-12T14:23:24.005Z,99935.28
2023-01-12T14:26:10.478Z,99941.47
2023-01-12T14:28:40.019Z,99928.28
2023-01-12T14:31:16.807Z,99923.91
2023-01-12T14:33:54.098Z,99923.03
2023-01-12T14:36:29.702Z,99922.13
2023-01-12T14:38:58.812Z,99923.88
2023-01-12T14:41:47.693Z,99919.53
2023-01-12T14:44:44.784Z,99914.25
2023-01-12T14:47:28.638Z,99912.50
2023-01-12T14:49:56.016Z,99904.56
2023-01-12T14:52:26.269Z,99916.03
2023-01-12T14:54:53.348Z,99910.75
2023-01-12T14:57:34.779Z,99908.13
2023-01-12T15:00:05.936Z,99901.94
2023-01-12T15:02:39.178Z,99908.13
2023-01-12T15:05:18.502Z,99907.22
2023-01-12T15:08:22.319Z,99906.31
2023-01-12T15:11:01.210Z,99913.38
2023-01-12T15:13:37.456Z,99908.97
2023-01-12T15:16:24.394Z,99910.72
2023-01-12T15:19:09.755Z,99909.84
2023-01-12T15:21:56.809Z,99908.94
2023-01-12T15:24:52.286Z,99914.22
2023-01-12T15:27:23.511Z,99908.03
2023-01-12T15:29:50.562Z,99922.97
2023-01-12T15:32:47.491Z,99912.41
2023-01-12T15:35:21.603Z,99916.81
2023-01-12T15:37:48.747Z,99910.66
2023-01-12T15:40:16.816Z,99916.81
2023-01-12T15:42:43.883Z,99919.50
2023-01-12T15:45:36.033Z,99910.66
2023-01-12T15:48:04.563Z,99923.84
2023-01-12T15:50:34.046Z,99911.53
2023-01-12T15:53:05.499Z,99926.47
2023-01-12T15:55:36.065Z,99935.31
2023-01-12T15:58:04.418Z,99923.84
2023-01-12T16:00:31.801Z,99928.25
2023-01-12T16:02:58.972Z,99921.19
2023-01-12T16:05:32.520Z,99923.81
2023-01-12T16:07:59.582Z,99919.38
2023-01-12T16:10:30.264Z,99913.25
2023-01-12T16:13:01.940Z,99920.28
2023-01-12T16:15:30.474Z,99922.97
2023-01-12T16:17:57.545Z,99906.28
2023-01-12T16:20:24.568Z,99902.78
2023-01-12T16:22:53.288Z,99892.19
2023-01-12T16:25:20.547Z,99893.06
2023-01-12T16:27:47.827Z,99886.03
2023-01-12T16:30:18.296Z,99883.38
2023-01-12T16:32:53.654Z,99879.84
2023-01-12T16:35:21.020Z,99886.88
2023-01-12T16:37:54.649Z,99894.81
2023-01-12T16:40:21.643Z,99887.75
2023-01-12T16:42:48.732Z,99878.97
2023-01-12T16:45:15.768Z,99882.44
2023-01-12T16:47:42.746Z,99884.22
2023-01-12T16:50:13.901Z,99894.75
2023-01-12T16:52:41.177Z,99903.53
2023-01-12T16:55:08.639Z,99908.81
2023-01-12T16:57:35.939Z,99891.19
2023-01-12T17:00:04.430Z,99894.69
2023-01-12T17:02:32.010Z,99887.66
2023-01-12T17:04:59.736Z,99884.16
2023-01-12T17:07:27.989Z,99878.00
2023-01-12T17:09:55.658Z,99876.25
2023-01-12T17:12:22.693Z,99870.09
2023-01-12T17:14:49.797Z,99869.22
2023-01-12T17:17:17.029Z,99865.69
2023-01-12T17:19:45.028Z,99868.34
2023-01-12T17:22:13.406Z,99859.53
2023-01-12T17:24:41.195Z,99863.94
2023-01-12T17:27:10.476Z,99870.97
2023-01-12T17:29:40.022Z,99860.41
2023-01-12T17:32:08.332Z,99864.81
2023-01-12T17:34:39.265Z,99866.56
2023-01-12T17:37:09.948Z,99863.94
2023-01-12T17:39:40.993Z,99859.56
2023-01-12T17:42:27.126Z,99864.00
2023-01-12T17:44:54.887Z,99868.41
2023-01-12T17:47:22.783Z,99856.13
2023-01-12T17:49:50.117Z,99848.22
2023-01-12T17:52:17.833Z,99846.47
2023-01-12T17:54:45.493Z,99849.09
2023-01-12T17:57:13.390Z,99836.78
2023-01-12T17:59:41.277Z,99839.41
2023-01-12T18:02:12.186Z,99836.78
2023-01-12T18:04:39.579Z,99813.84
2023-01-12T18:07:07.126Z,99830.59
2023-01-12T18:09:34.620Z,99829.75
2023-01-12T18:12:03.652Z,99820.91
2023-01-12T18:14:30.828Z,99812.13
2023-01-12T18:16:58.848Z,99814.75
2023-01-12T18:19:26.016Z,99812.13
2023-01-12T18:21:53.049Z,99798.91
2023-01-12T18:24:20.032Z,99809.47
2023-01-12T18:26:47.006Z,99817.34
2023-01-12T18:29:23.346Z,99830.50
2023-01-12T18:31:50.336Z,99839.28
2023-01-12T18:34:19.372Z,99849.84
2023-01-12T18:36:47.425Z,99847.16
2023-01-12T18:39:23.296Z,99855.91
2023-01-12T18:42:10.201Z,99856.72
2023-01-12T18:44:40.679Z,99875.13
2023-01-12T18:47:26.587Z,99867.22
2023-01-12T18:49:58.459Z,99861.03
2023-01-12T18:52:46.989Z,99868.91
2023-01-12T18:55:14.015Z,99869.78
2023-01-12T18:57:41.080Z,99879.50
2023-01-12T19:00:16.251Z,99874.22
2023-01-12T19:02:44.108Z,99871.56
2023-01-12T19:05:25.839Z,99876.84
2023-01-12T19:07:58.922Z,99873.34
2023-01-12T19:10:27.614Z,99862.94
2023-01-12T19:13:14.959Z,99861.16
2023-01-12T19:16:01.042Z,99856.78
2023-01-12T19:18:28.704Z,99850.69
2023-01-12T19:21:21.759Z,99856.88
2023-01-12T19:24:08.018Z,99847.16
2023-01-12T19:26:53.881Z,99860.50
2023-01-12T19:29:20.833Z,99846.47
2023-01-12T19:31:47.837Z,99837.66
2023-01-12T19:34:14.807Z,99830.59
2023-01-12T19:36:41.772Z,99836.78
2023-01-12T19:39:10.468Z,99829.72
2023-01-12T19:41:56.347Z,99826.19
2023-01-12T19:44:23.275Z,99823.59
2023-01-12T19:46:50.462Z,99813.91
2023-01-12T19:49:18.564Z,99800.69
2023-01-12T19:51:46.910Z,99797.16
2023-01-12T19:54:13.938Z,99787.47
2023-01-12T19:56:41.222Z,99767.22
2023-01-12T19:59:08.201Z,99761.06
2023-01-12T20:01:35.702Z,99769.88
2023-01-12T20:04:04.293Z,99760.19
2023-01-12T20:06:31.310Z,99755.78
2023-01-12T20:08:58.304Z,99751.38
2023-01-12T20:11:25.282Z,99751.38
2023-01-12T20:13:52.279Z,99740.81
2023-01-12T20:16:20.363Z,99747.88
2023-01-12T20:18:48.871Z,99745.22
2023-01-12T20:21:16.117Z,99756.66
2023-01-12T20:23:43.062Z,99755.78
2023-01-12T20:26:12.718Z,99763.69
2023-01-12T20:28:40.676Z,99757.53
2023-01-12T20:31:16.897Z,99767.22
2023-01-12T20:33:44.289Z,99768.06
2023-01-12T20:36:13.757Z,99771.59
2023-01-12T20:38:41.412Z,99775.13
2023-01-12T20:41:10.219Z,99771.59
2023-01-12T20:43:37.595Z,99767.22
2023-01-12T20:46:10.293Z,99771.59
2023-01-12T20:48:37.785Z,99760.16
2023-01-12T20:51:12.889Z,99764.53
2023-01-12T20:53:41.002Z,99761.00
2023-01-12T20:56:08.758Z,99755.72
2023-01-12T20:58:36.184Z,99768.00
2023-01-12T21:01:10.157Z,99772.34
2023-01-12T21:03:37.693Z,99784.66
2023-01-12T21:06:13.342Z,99780.25
2023-01-12T21:08:45.307Z,99791.66
2023-01-12T21:11:15.583Z,99797.81
2023-01-12T21:13:43.590Z,99799.50
2023-01-12T21:16:16.183Z,99801.22
2023-01-12T21:18:43.492Z,99810.00
2023-01-12T21:21:11.399Z,99821.44
2023-01-12T21:23:38.522Z,99814.41
2023-01-12T21:26:07.904Z,99800.44
2023-01-12T21:28:38.327Z,99802.97
2023-01-12T21:31:08.479Z,99802.09
2023-01-12T21:33:35.799Z,99803.88
2023-01-12T21:36:03.724Z,99796.13
2023-01-12T21:38:31.667Z,99791.72
2023-01-12T21:41:03.919Z,99787.28
2023-01-12T21:43:31.837Z,99775.88
2023-01-12T21:46:06.927Z,99775.09
2023-01-12T21:48:34.413Z,99775.13
2023-01-12T21:51:06.317Z,99772.47
2023-01-12T21:53:33.746Z,99756.63
2023-01-12T21:56:05.418Z,99733.75
2023-01-12T21:58:35.485Z,99736.41
2023-01-12T22:01:09.391Z,99720.56
2023-01-12T22:03:36.620Z,99731.13
2023-01-12T22:06:10.316Z,99727.59
2023-01-12T22:08:39.861Z,99711.75
2023-01-12T22:11:11.740Z,99731.97
2023-01-12T22:13:39.314Z,99737.28
2023-01-12T22:16:13.049Z,99731.13
2023-01-12T22:18:44.262Z,99728.50
2023-01-12T22:21:11.407Z,99716.16
2023-01-12T22:23:38.787Z,99718.81
2023-01-12T22:26:12.213Z,99713.53
2023-01-12T22:28:42.217Z,99713.53
2023-01-12T22:31:15.185Z,99716.16
2023-01-12T22:33:57.615Z,99695.91
2023-01-12T22:36:25.454Z,99699.44
2023-01-12T22:38:52.584Z,99698.56
2023-01-12T22:41:21.952Z,99695.91
2023-01-12T22:43:49.641Z,99688.84
2023-01-12T22:46:23.156Z,99683.56
2023-01-12T22:48:56.360Z,99680.94
2023-01-12T22:51:25.510Z,99687.13
2023-01-12T22:53:56.073Z,99671.25
2023-01-12T22:56:23.672Z,99672.09
2023-01-12T22:58:53.793Z,99659.78
2023-01-12T23:01:23.061Z,99668.63
2023-01-12T23:03:57.143Z,99662.44
2023-01-12T23:06:25.978Z,99651.84
2023-01-12T23:08:53.641Z,99658.03
2023-01-12T23:11:24.251Z,99660.69
2023-01-12T23:13:54.366Z,99675.66
2023-01-12T23:16:21.538Z,99678.31
2023-01-12T23:18:49.983Z,99670.38
2023-01-12T23:21:21.908Z,99682.69
2023-01-12T23:23:59.902Z,99671.22
2023-01-12T23:26:31.410Z,99664.19
2023-01-12T23:29:00.630Z,99676.56
2023-01-12T23:31:31.442Z,99658.06
2023-01-12T23:33:58.457Z,99668.59
2023-01-12T23:36:28.241Z,99655.41
2023-01-12T23:39:01.200Z,99663.34
2023-01-12T23:41:31.026Z,99665.94
2023-01-12T23:44:00.101Z,99667.75
2023-01-12T23:46:28.729Z,99661.53
2023-01-12T23:48:57.803Z,99656.28
2023-01-12T23:51:27.456Z,99652.75
2023-01-12T23:53:59.758Z,99653.63
2023-01-12T23:56:32.762Z,99655.41
2023-01-12T23:58:59.922Z,99649.25
